sensor_id;sensor_type;location;lat;lon;timestamp;pressure;altitude;pressure_sealevel;temperature;humidity
47753;BME280;2038;51.728;6.674;2023-07-31T00:01:11;100382.03;;;16.80;100.00
47753;BME280;2038;51.728;6.674;2023-07-31T00:03:37;100384.63;;;16.80;100.00
47753;BME280;2038;51.728;6.674;2023-07-31T00:06:03;100375.94;;;16.78;100.00
47753;BME280;2038;51.728;6.674;2023-07-31T00:08:29;100370.97;;;16.82;100.00
47753;BME280;2038;51.728;6.674;2023-07-31T00:10:56;100372.63;;;16.80;100.00
47753;BME280;2038;51.728;6.674;2023-07-31T00:13:22;100370.06;;;16.80;100.00
47753;BME280;2038;51.728;6.674;2023-07-31T00:15:49;100360.78;;;16.85;100.00
47753;BME280;2038;51.728;6.674;2023-07-31T00:18:15;100352.94;;;16.82;100.00
47753;BME280;2038;51.728;6.674;2023-07-31T00:20:41;100348.63;;;16.81;100.00
47753;BME280;2038;51.728;6.674;2023-07-31T00:23:08;100350.19;;;16.76;100.00
47753;BME280;2038;51.728;6.674;2023-07-31T00:25:34;100350.13;;;16.75;100.00
47753;BME280;2038;51.728;6.674;2023-07-31T00:28:00;100340.06;;;16.82;100.00
47753;BME280;2038;51.728;6.674;2023-07-31T00:30:26;100344.66;;;16.91;100.00
47753;BME280;2038;51.728;6.674;2023-07-31T00:32:53;100334.44;;;16.93;100.00
47753;BME280;2038;51.728;6.674;2023-07-31T00:35:19;100336.38;;;17.00;100.00
47753;BME280;2038;51.728;6.674;2023-07-31T00:37:45;100336.38;;;17.00;100.00
47753;BME280;2038;51.728;6.674;2023-07-31T00:40:11;100328.84;;;17.06;100.00
47753;BME280;2038;51.728;6.674;2023-07-31T00:42:39;100329.22;;;17.18;100.00
47753;BME280;2038;51.728;6.674;2023-07-31T00:45:06;100327.09;;;17.31;100.00
47753;BME280;2038;51.728;6.674;2023-07-31T00:47:32;100321.94;;;17.31;100.00
47753;BME280;2038;51.728;6.674;2023-07-31T00:49:59;100330.78;;;17.40;100.00
47753;BME280;2038;51.728;6.674;2023-07-31T00:52:25;100312.69;;;17.38;100.00
47753;BME280;2038;51.728;6.674;2023-07-31T00:54:51;100323.44;;;17.52;100.00
47753;BME280;2038;51.728;6.674;2023-07-31T00:57:18;100321.00;;;17.56;100.00
47753;BME280;2038;51.728;6.674;2023-07-31T00:59:44;100320.00;;;17.51;100.00
47753;BME280;2038;51.728;6.674;2023-07-31T01:02:12;100310.47;;;17.49;100.00
47753;BME280;2038;51.728;6.674;2023-07-31T01:04:38;100310.81;;;17.59;100.00
47753;BME280;2038;51.728;6.674;2023-07-31T01:07:18;100316.84;;;17.60;100.00
47753;BME280;2038;51.728;6.674;2023-07-31T01:10:23;100310.00;;;17.60;100.00
47753;BME280;2038;51.728;6.674;2023-07-31T01:12:54;100323.72;;;17.59;100.00
47753;BME280;2038;51.728;6.674;2023-07-31T01:15:23;100313.28;;;17.56;100.00
47753;BME280;2038;51.728;6.674;2023-07-31T01:17:49;100309.94;;;17.59;100.00
47753;BME280;2038;51.728;6.674;2023-07-31T01:20:23;100313.41;;;17.59;100.00
47753;BME280;2038;51.728;6.674;2023-07-31T01:23:21;100319.59;;;17.66;100.00
47753;BME280;2038;51.728;6.674;2023-07-31T01:31:40;100314.28;;;17.60;100.00
47753;BME280;2038;51.728;6.674;2023-07-31T01:34:09;100306.16;;;17.49;100.00
47753;BME280;2038;51.728;6.674;2023-07-31T01:36:37;100306.44;;;17.57;100.00
47753;BME280;2038;51.728;6.674;2023-07-31T01:39:03;100310.00;;;17.60;100.00
47753;BME280;2038;51.728;6.674;2023-07-31T01:41:30;100308.31;;;17.61;100.00
47753;BME280;2038;51.728;6.674;2023-07-31T01:43:56;100314.66;;;17.73;100.00
47753;BME280;2038;51.728;6.674;2023-07-31T01:46:22;100308.41;;;17.65;100.00
47753;BME280;2038;51.728;6.674;2023-07-31T01:48:48;100308.53;;;17.68;100.00
47753;BME280;2038;51.728;6.674;2023-07-31T01:51:15;100300.53;;;17.59;100.00
47753;BME280;2038;51.728;6.674;2023-07-31T01:53:41;100313.53;;;17.64;100.00
47753;BME280;2038;51.728;6.674;2023-07-31T01:56:07;100306.50;;;17.58;100.00
47753;BME280;2038;51.728;6.674;2023-07-31T01:58:33;100308.47;;;17.67;100.00
47753;BME280;2038;51.728;6.674;2023-07-31T02:01:00;100300.41;;;17.56;100.00
47753;BME280;2038;51.728;6.674;2023-07-31T02:03:26;100303.03;;;17.58;100.00
47753;BME280;2038;51.728;6.674;2023-07-31T02:05:53;100304.28;;;17.70;100.00
47753;BME280;2038;51.728;6.674;2023-07-31T02:08:20;100302.28;;;17.60;100.00
47753;BME280;2038;51.728;6.674;2023-07-31T02:10:46;100293.53;;;17.57;100.00
47753;BME280;2038;51.728;6.674;2023-07-31T02:13:12;100295.38;;;17.59;100.00
47753;BME280;2038;51.728;6.674;2023-07-31T02:15:38;100296.81;;;17.51;100.00
47753;BME280;2038;51.728;6.674;2023-07-31T02:18:05;100285.06;;;17.59;100.00
47753;BME280;2038;51.728;6.674;2023-07-31T02:20:34;100286.09;;;17.66;100.00
47753;BME280;2038;51.728;6.674;2023-07-31T02:23:01;100286.91;;;17.63;100.00
47753;BME280;2038;51.728;6.674;2023-07-31T02:25:27;100291.13;;;17.61;100.00
47753;BME280;2038;51.728;6.674;2023-07-31T02:27:53;100284.06;;;17.56;100.00
47753;BME280;2038;51.728;6.674;2023-07-31T02:30:20;100281.28;;;17.50;100.00
47753;BME280;2038;51.728;6.674;2023-07-31T02:32:46;100289.34;;;17.59;100.00
47753;BME280;2038;51.728;6.674;2023-07-31T02:35:12;100285.97;;;17.61;100.00
47753;BME280;2038;51.728;6.674;2023-07-31T02:37:41;100285.88;;;17.58;100.00
47753;BME280;2038;51.728;6.674;2023-07-31T02:40:08;100287.31;;;17.50;100.00
47753;BME280;2038;51.728;6.674;2023-07-31T02:42:35;100283.50;;;17.64;100.00
47753;BME280;2038;51.728;6.674;2023-07-31T02:45:01;100282.97;;;17.49;100.00
47753;BME280;2038;51.728;6.674;2023-07-31T02:47:27;100273.56;;;17.50;100.00
47753;BME280;2038;51.728;6.674;2023-07-31T02:49:53;100275.22;;;17.48;100.00
47753;BME280;2038;51.728;6.674;2023-07-31T02:52:19;100279.59;;;17.50;100.00
47753;BME280;2038;51.728;6.674;2023-07-31T02:54:46;100270.06;;;17.48;100.00
47753;BME280;2038;51.728;6.674;2023-07-31T02:57:12;100262.94;;;17.39;100.00
47753;BME280;2038;51.728;6.674;2023-07-31T02:59:38;100277.72;;;17.45;100.00
47753;BME280;2038;51.728;6.674;2023-07-31T03:02:04;100269.94;;;17.43;100.00
47753;BME280;2038;51.728;6.674;2023-07-31T03:04:30;100266.53;;;17.44;100.00
47753;BME280;2038;51.728;6.674;2023-07-31T03:06:57;100280.38;;;17.48;100.00
47753;BME280;2038;51.728;6.674;2023-07-31T03:09:23;100277.53;;;17.67;100.00
47753;BME280;2038;51.728;6.674;2023-07-31T03:11:49;100265.66;;;17.44;100.00
47753;BME280;2038;51.728;6.674;2023-07-31T03:14:15;100274.19;;;17.41;100.00
47753;BME280;2038;51.728;6.674;2023-07-31T03:16:41;100269.34;;;17.53;100.00
47753;BME280;2038;51.728;6.674;2023-07-31T03:19:08;100265.09;;;17.54;100.00
47753;BME280;2038;51.728;6.674;2023-07-31T03:21:34;100266.63;;;17.47;100.00
47753;BME280;2038;51.728;6.674;2023-07-31T03:24:00;100266.56;;;17.46;100.00
47753;BME280;2038;51.728;6.674;2023-07-31T03:26:26;100250.78;;;17.35;100.00
47753;BME280;2038;51.728;6.674;2023-07-31T03:28:52;100265.59;;;17.42;100.00
47753;BME280;2038;51.728;6.674;2023-07-31T03:31:19;100263.88;;;17.41;100.00
47753;BME280;2038;51.728;6.674;2023-07-31T03:33:45;100267.34;;;17.43;100.00
47753;BME280;2038;51.728;6.674;2023-07-31T03:36:11;100258.66;;;17.40;100.00
47753;BME280;2038;51.728;6.674;2023-07-31T03:38:37;100265.38;;;17.35;100.00
47753;BME280;2038;51.728;6.674;2023-07-31T03:41:03;100267.22;;;17.39;100.00
47753;BME280;2038;51.728;6.674;2023-07-31T03:43:32;100267.44;;;17.46;100.00
47753;BME280;2038;51.728;6.674;2023-07-31T03:46:01;100267.34;;;17.43;100.00
47753;BME280;2038;51.728;6.674;2023-07-31T03:48:28;100256.59;;;17.28;100.00
47753;BME280;2038;51.728;6.674;2023-07-31T03:50:54;100263.50;;;17.29;100.00
47753;BME280;2038;51.728;6.674;2023-07-31T03:53:21;100263.00;;;17.41;100.00
47753;BME280;2038;51.728;6.674;2023-07-31T03:55:47;100261.38;;;17.44;100.00
47753;BME280;2038;51.728;6.674;2023-07-31T03:58:13;100255.34;;;17.44;100.00
47753;BME280;2038;51.728;6.674;2023-07-31T04:00:41;100265.66;;;17.44;100.00
47753;BME280;2038;51.728;6.674;2023-07-31T04:03:07;100260.59;;;17.47;100.00
47753;BME280;2038;51.728;6.674;2023-07-31T04:05:33;100258.81;;;17.44;100.00
47753;BME280;2038;51.728;6.674;2023-07-31T04:08:04;100254.00;;;17.56;100.00
47753;BME280;2038;51.728;6.674;2023-07-31T04:10:30;100239.94;;;17.45;100.00
47753;BME280;2038;51.728;6.674;2023-07-31T04:12:59;100254.00;;;17.56;100.00
47753;BME280;2038;51.728;6.674;2023-07-31T04:15:26;100252.94;;;17.50;100.00
47753;BME280;2038;51.728;6.674;2023-07-31T04:17:52;100232.63;;;17.59;100.00
47753;BME280;2038;51.728;6.674;2023-07-31T04:20:19;100235.16;;;17.57;100.00
47753;BME280;2038;51.728;6.674;2023-07-31T04:22:45;100245.19;;;17.48;100.00
47753;BME280;2038;51.728;6.674;2023-07-31T04:25:11;100239.69;;;17.64;100.00
47753;BME280;2038;51.728;6.674;2023-07-31T04:27:37;100226.69;;;17.61;100.00
47753;BME280;2038;51.728;6.674;2023-07-31T04:30:04;100236.78;;;17.55;100.00
47753;BME280;2038;51.728;6.674;2023-07-31T04:32:31;100230.28;;;17.66;100.00
47753;BME280;2038;51.728;6.674;2023-07-31T04:34:57;100226.69;;;17.61;100.00
47753;BME280;2038;51.728;6.674;2023-07-31T04:37:23;100241.81;;;17.79;100.00
47753;BME280;2038;51.728;6.674;2023-07-31T04:39:49;100245.31;;;17.81;100.00
47753;BME280;2038;51.728;6.674;2023-07-31T04:42:15;100228.97;;;17.81;100.00
47753;BME280;2038;51.728;6.674;2023-07-31T04:44:41;100231.38;;;17.74;100.00
47753;BME280;2038;51.728;6.674;2023-07-31T04:47:08;100243.94;;;17.94;100.00
47753;BME280;2038;51.728;6.674;2023-07-31T04:49:34;100234.16;;;17.82;100.00
47753;BME280;2038;51.728;6.674;2023-07-31T04:52:00;100236.84;;;17.85;100.00
47753;BME280;2038;51.728;6.674;2023-07-31T04:54:26;100234.28;;;17.87;100.00
47753;BME280;2038;51.728;6.674;2023-07-31T04:56:53;100237.59;;;17.83;100.00
47753;BME280;2038;51.728;6.674;2023-07-31T04:59:19;100232.63;;;17.89;100.00
47753;BME280;2038;51.728;6.674;2023-07-31T05:01:45;100235.56;;;18.01;100.00
47753;BME280;2038;51.728;6.674;2023-07-31T05:04:15;100227.28;;;17.81;100.00
47753;BME280;2038;51.728;6.674;2023-07-31T05:06:41;100229.22;;;17.90;100.00
47753;BME280;2038;51.728;6.674;2023-07-31T05:09:08;100224.97;;;17.92;100.00
47753;BME280;2038;51.728;6.674;2023-07-31T05:11:35;100215.28;;;17.83;100.00
47753;BME280;2038;51.728;6.674;2023-07-31T05:14:01;100217.44;;;17.99;100.00
47753;BME280;2038;51.728;6.674;2023-07-31T05:16:28;100221.72;;;17.99;100.00
47753;BME280;2038;51.728;6.674;2023-07-31T05:18:54;100208.16;;;18.06;100.00
47753;BME280;2038;51.728;6.674;2023-07-31T05:21:20;100211.00;;;18.15;100.00
47753;BME280;2038;51.728;6.674;2023-07-31T05:23:46;100205.69;;;18.09;100.00
47753;BME280;2038;51.728;6.674;2023-07-31T05:26:13;100198.53;;;17.99;100.00
47753;BME280;2038;51.728;6.674;2023-07-31T05:28:39;100199.59;;;18.07;100.00
47753;BME280;2038;51.728;6.674;2023-07-31T05:31:06;100201.50;;;18.14;100.00
47753;BME280;2038;51.728;6.674;2023-07-31T05:33:33;100184.25;;;18.11;100.00
47753;BME280;2038;51.728;6.674;2023-07-31T05:36:00;100185.16;;;18.13;100.00
47753;BME280;2038;51.728;6.674;2023-07-31T05:38:26;100181.06;;;18.21;100.00
47753;BME280;2038;51.728;6.674;2023-07-31T05:40:52;100187.91;;;18.19;100.00
47753;BME280;2038;51.728;6.674;2023-07-31T05:43:18;100179.72;;;18.36;100.00
47753;BME280;2038;51.728;6.674;2023-07-31T05:45:45;100177.97;;;18.35;100.00
47753;BME280;2038;51.728;6.674;2023-07-31T05:48:11;100181.31;;;18.31;100.00
47753;BME280;2038;51.728;6.674;2023-07-31T05:50:37;100173.72;;;18.37;100.00
47753;BME280;2038;51.728;6.674;2023-07-31T05:53:05;100167.69;;;18.36;100.00
47753;BME280;2038;51.728;6.674;2023-07-31T05:55:32;100174.31;;;18.27;100.00
47753;BME280;2038;51.728;6.674;2023-07-31T05:57:58;100164.31;;;18.39;100.00
47753;BME280;2038;51.728;6.674;2023-07-31T06:00:24;100158.97;;;18.31;100.00
47753;BME280;2038;51.728;6.674;2023-07-31T06:02:51;100161.66;;;18.36;100.00
47753;BME280;2038;51.728;6.674;2023-07-31T06:05:17;100160.91;;;18.40;100.00
47753;BME280;2038;51.728;6.674;2023-07-31T06:07:43;100159.19;;;18.40;100.00
47753;BME280;2038;51.728;6.674;2023-07-31T06:10:09;100158.16;;;18.34;100.00
47753;BME280;2038;51.728;6.674;2023-07-31T06:12:36;100159.22;;;18.42;100.00
47753;BME280;2038;51.728;6.674;2023-07-31T06:15:03;100165.13;;;18.36;100.00
47753;BME280;2038;51.728;6.674;2023-07-31T06:17:30;100164.28;;;18.37;100.00
47753;BME280;2038;51.728;6.674;2023-07-31T06:19:57;100160.53;;;18.26;100.00
47753;BME280;2038;51.728;6.674;2023-07-31T06:22:23;100170.78;;;18.23;100.00
47753;BME280;2038;51.728;6.674;2023-07-31T06:24:49;100161.09;;;18.13;100.00
47753;BME280;2038;51.728;6.674;2023-07-31T06:27:16;100168.72;;;18.08;100.00
47753;BME280;2038;51.728;6.674;2023-07-31T06:29:42;100156.38;;;17.98;100.00
47753;BME280;2038;51.728;6.674;2023-07-31T06:32:09;100166.13;;;18.08;100.00
47753;BME280;2038;51.728;6.674;2023-07-31T06:34:35;100168.50;;;18.01;100.00
47753;BME280;2038;51.728;6.674;2023-07-31T06:37:01;100159.56;;;17.88;100.00
47753;BME280;2038;51.728;6.674;2023-07-31T06:39:27;100163.47;;;18.05;100.00
47753;BME280;2038;51.728;6.674;2023-07-31T06:41:53;100160.03;;;18.05;100.00
47753;BME280;2038;51.728;6.674;2023-07-31T06:44:20;100160.16;;;18.09;100.00
47753;BME280;2038;51.728;6.674;2023-07-31T06:46:46;100158.22;;;18.02;100.00
47753;BME280;2038;51.728;6.674;2023-07-31T06:49:12;100141.91;;;18.03;100.00
47753;BME280;2038;51.728;6.674;2023-07-31T06:51:41;100133.25;;;18.00;100.00
47753;BME280;2038;51.728;6.674;2023-07-31T06:54:08;100142.59;;;17.96;100.00
47753;BME280;2038;51.728;6.674;2023-07-31T06:56:34;100142.94;;;18.10;100.00
47753;BME280;2038;51.728;6.674;2023-07-31T06:59:01;100140.91;;;17.97;100.00
47753;BME280;2038;51.728;6.674;2023-07-31T07:01:27;100142.31;;;18.18;100.00
47753;BME280;2038;51.728;6.674;2023-07-31T07:03:54;100146.56;;;18.16;100.00
47753;BME280;2038;51.728;6.674;2023-07-31T07:06:21;100135.50;;;18.22;100.00
47753;BME280;2038;51.728;6.674;2023-07-31T07:08:48;100143.09;;;18.16;100.00
47753;BME280;2038;51.728;6.674;2023-07-31T07:11:15;100130.44;;;18.25;100.00
47753;BME280;2038;51.728;6.674;2023-07-31T07:13:41;100128.72;;;18.25;100.00
47753;BME280;2038;51.728;6.674;2023-07-31T07:16:07;100132.03;;;18.21;100.00
47753;BME280;2038;51.728;6.674;2023-07-31T07:18:33;100127.75;;;18.20;100.00
47753;BME280;2038;51.728;6.674;2023-07-31T07:21:00;100130.91;;;18.09;100.00
47753;BME280;2038;51.728;6.674;2023-07-31T07:23:28;100112.16;;;18.17;100.00
47753;BME280;2038;51.728;6.674;2023-07-31T07:25:54;100125.19;;;18.22;100.00
47753;BME280;2038;51.728;6.674;2023-07-31T07:28:20;100114.63;;;18.11;100.00
47753;BME280;2038;51.728;6.674;2023-07-31T07:30:51;100111.41;;;18.20;100.00
47753;BME280;2038;51.728;6.674;2023-07-31T07:33:19;100115.69;;;18.19;100.00
47753;BME280;2038;51.728;6.674;2023-07-31T07:35:45;100116.56;;;18.20;100.00
47753;BME280;2038;51.728;6.674;2023-07-31T07:38:13;100112.00;;;18.10;100.00
47753;BME280;2038;51.728;6.674;2023-07-31T07:40:40;100110.34;;;18.13;100.00
47753;BME280;2038;51.728;6.674;2023-07-31T07:43:07;100104.00;;;17.99;100.00
47753;BME280;2038;51.728;6.674;2023-07-31T07:45:34;100104.44;;;18.17;100.00
47753;BME280;2038;51.728;6.674;2023-07-31T07:48:00;100117.56;;;18.27;100.00
47753;BME280;2038;51.728;6.674;2023-07-31T07:50:26;100105.31;;;18.18;100.00
47753;BME280;2038;51.728;6.674;2023-07-31T07:52:52;100111.53;;;18.26;100.00
47753;BME280;2038;51.728;6.674;2023-07-31T07:55:18;100103.78;;;18.26;100.00
47753;BME280;2038;51.728;6.674;2023-07-31T07:57:45;100100.91;;;18.14;100.00
47753;BME280;2038;51.728;6.674;2023-07-31T08:00:13;100107.72;;;18.10;100.00
47753;BME280;2038;51.728;6.674;2023-07-31T08:02:39;100096.50;;;18.10;100.00
47753;BME280;2038;51.728;6.674;2023-07-31T08:05:05;100098.63;;;18.24;100.00
47753;BME280;2038;51.728;6.674;2023-07-31T08:07:32;100100.44;;;18.29;100.00
47753;BME280;2038;51.728;6.674;2023-07-31T08:09:58;100093.47;;;18.26;100.00
47753;BME280;2038;51.728;6.674;2023-07-31T08:12:24;100085.09;;;18.35;100.00
47753;BME280;2038;51.728;6.674;2023-07-31T08:14:50;100086.13;;;18.41;100.00
47753;BME280;2038;51.728;6.674;2023-07-31T08:17:17;100079.22;;;18.42;100.00
47753;BME280;2038;51.728;6.674;2023-07-31T08:19:43;100081.91;;;18.46;100.00
47753;BME280;2038;51.728;6.674;2023-07-31T08:22:10;100081.34;;;18.56;100.00
47753;BME280;2038;51.728;6.674;2023-07-31T08:24:37;100078.50;;;18.47;100.00
47753;BME280;2038;51.728;6.674;2023-07-31T08:27:03;100071.69;;;18.49;100.00
47753;BME280;2038;51.728;6.674;2023-07-31T08:29:29;100079.53;;;18.52;100.00
47753;BME280;2038;51.728;6.674;2023-07-31T08:31:55;100075.97;;;18.50;100.00
47753;BME280;2038;51.728;6.674;2023-07-31T08:34:22;100085.31;;;18.44;100.00
47753;BME280;2038;51.728;6.674;2023-07-31T08:36:48;100082.56;;;18.38;100.00
47753;BME280;2038;51.728;6.674;2023-07-31T08:39:14;100093.81;;;18.40;100.00
47753;BME280;2038;51.728;6.674;2023-07-31T08:41:40;100093.59;;;18.31;100.00
47753;BME280;2038;51.728;6.674;2023-07-31T08:44:11;100083.13;;;18.24;100.00
47753;BME280;2038;51.728;6.674;2023-07-31T08:46:38;100075.13;;;18.14;100.00
47753;BME280;2038;51.728;6.674;2023-07-31T08:49:06;100088.94;;;18.16;100.00
47753;BME280;2038;51.728;6.674;2023-07-31T08:51:37;100085.63;;;18.21;100.00
47753;BME280;2038;51.728;6.674;2023-07-31T08:54:04;100088.19;;;18.21;100.00
47753;BME280;2038;51.728;6.674;2023-07-31T08:56:31;100082.97;;;18.18;100.00
47753;BME280;2038;51.728;6.674;2023-07-31T08:58:59;100081.31;;;18.20;100.00
47753;BME280;2038;51.728;6.674;2023-07-31T09:01:29;100087.13;;;18.12;100.00
47753;BME280;2038;51.728;6.674;2023-07-31T09:03:58;100086.88;;;18.03;100.00
47753;BME280;2038;51.728;6.674;2023-07-31T09:06:28;100079.91;;;17.97;100.00
47753;BME280;2038;51.728;6.674;2023-07-31T09:08:56;100076.00;;;18.14;100.00
47753;BME280;2038;51.728;6.674;2023-07-31T09:11:24;100080.19;;;18.09;100.00
47753;BME280;2038;51.728;6.674;2023-07-31T09:13:51;100091.00;;;18.29;100.00
47753;BME280;2038;51.728;6.674;2023-07-31T09:16:18;100087.66;;;18.33;100.00
47753;BME280;2038;51.728;6.674;2023-07-31T09:18:57;100076.94;;;18.16;100.00
47753;BME280;2038;51.728;6.674;2023-07-31T09:21:24;100077.88;;;18.20;100.00
47753;BME280;2038;51.728;6.674;2023-07-31T09:23:52;100072.13;;;18.32;100.00
47753;BME280;2038;51.728;6.674;2023-07-31T09:26:36;100079.91;;;18.35;100.00
47753;BME280;2038;51.728;6.674;2023-07-31T09:29:07;100073.75;;;18.28;100.00
47753;BME280;2038;51.728;6.674;2023-07-31T09:31:45;100058.13;;;18.22;100.00
47753;BME280;2038;51.728;6.674;2023-07-31T09:34:12;100064.34;;;18.30;100.00
47753;BME280;2038;51.728;6.674;2023-07-31T09:36:43;100075.81;;;18.43;100.00
47753;BME280;2038;51.728;6.674;2023-07-31T09:39:15;100071.59;;;18.46;100.00
47753;BME280;2038;51.728;6.674;2023-07-31T09:41:48;100057.72;;;18.41;100.00
47753;BME280;2038;51.728;6.674;2023-07-31T09:44:20;100054.00;;;18.29;100.00
47753;BME280;2038;51.728;6.674;2023-07-31T09:46:47;100070.53;;;18.38;100.00
47753;BME280;2038;51.728;6.674;2023-07-31T09:49:14;100063.69;;;18.39;100.00
47753;BME280;2038;51.728;6.674;2023-07-31T09:51:42;100063.16;;;18.52;100.00
47753;BME280;2038;51.728;6.674;2023-07-31T09:54:15;100066.44;;;18.46;100.00
47753;BME280;2038;51.728;6.674;2023-07-31T09:56:49;100067.34;;;18.48;100.00
47753;BME280;2038;51.728;6.674;2023-07-31T09:59:19;100057.91;;;18.49;100.00
47753;BME280;2038;51.728;6.674;2023-07-31T10:01:47;100042.25;;;18.41;100.00
47753;BME280;2038;51.728;6.674;2023-07-31T10:04:16;100042.31;;;18.46;100.00
47753;BME280;2038;51.728;6.674;2023-07-31T10:06:47;100057.75;;;18.43;100.00
47753;BME280;2038;51.728;6.674;2023-07-31T10:09:16;100056.88;;;18.42;100.00
47753;BME280;2038;51.728;6.674;2023-07-31T10:11:51;100042.03;;;18.32;100.00
47753;BME280;2038;51.728;6.674;2023-07-31T10:14:26;100058.97;;;18.57;100.00
47753;BME280;2038;51.728;6.674;2023-07-31T10:16:54;100063.84;;;18.45;100.00
47753;BME280;2038;51.728;6.674;2023-07-31T10:19:22;100063.91;;;18.48;100.00
47753;BME280;2038;51.728;6.674;2023-07-31T10:21:49;100065.50;;;18.43;100.00
47753;BME280;2038;51.728;6.674;2023-07-31T10:24:16;100055.16;;;18.43;100.00
47753;BME280;2038;51.728;6.674;2023-07-31T10:26:45;100050.00;;;18.43;100.00
47753;BME280;2038;51.728;6.674;2023-07-31T10:29:13;100062.03;;;18.42;100.00
47753;BME280;2038;51.728;6.674;2023-07-31T10:31:41;100056.03;;;18.43;100.00
47753;BME280;2038;51.728;6.674;2023-07-31T10:34:08;100052.59;;;18.43;100.00
47753;BME280;2038;51.728;6.674;2023-07-31T10:36:34;100061.28;;;18.46;100.00
47753;BME280;2038;51.728;6.674;2023-07-31T10:39:04;100055.47;;;18.53;100.00
47753;BME280;2038;51.728;6.674;2023-07-31T10:41:31;100053.72;;;18.54;100.00
47753;BME280;2038;51.728;6.674;2023-07-31T10:43:59;100063.84;;;18.45;100.00
47753;BME280;2038;51.728;6.674;2023-07-31T10:46:28;100053.78;;;18.55;100.00
47753;BME280;2038;51.728;6.674;2023-07-31T10:49:02;100059.59;;;18.48;100.00
47753;BME280;2038;51.728;6.674;2023-07-31T10:51:35;100051.34;;;18.61;100.00
47753;BME280;2038;51.728;6.674;2023-07-31T10:54:12;100045.63;;;18.76;100.00
47753;BME280;2038;51.728;6.674;2023-07-31T10:56:44;100052.53;;;18.77;100.00
47753;BME280;2038;51.728;6.674;2023-07-31T10:59:11;100048.47;;;18.90;100.00
47753;BME280;2038;51.728;6.674;2023-07-31T11:01:51;100050.13;;;18.86;100.00
47753;BME280;2038;51.728;6.674;2023-07-31T11:04:26;100042.38;;;18.86;100.00
47753;BME280;2038;51.728;6.674;2023-07-31T11:06:58;100045.25;;;19.00;100.00
47753;BME280;2038;51.728;6.674;2023-07-31T11:09:31;100043.19;;;19.26;100.00
47753;BME280;2038;51.728;6.674;2023-07-31T11:11:59;100040.75;;;19.33;100.00
47753;BME280;2038;51.728;6.674;2023-07-31T11:14:26;100036.44;;;19.32;100.00
47753;BME280;2038;51.728;6.674;2023-07-31T11:16:52;100027.66;;;19.24;100.00
47753;BME280;2038;51.728;6.674;2023-07-31T11:19:23;100029.91;;;19.49;100.00
47753;BME280;2038;51.728;6.674;2023-07-31T11:21:53;100026.66;;;19.61;100.00
47753;BME280;2038;51.728;6.674;2023-07-31T11:24:19;100027.53;;;19.63;100.00
47753;BME280;2038;51.728;6.674;2023-07-31T11:26:52;100032.78;;;19.68;100.00
47753;BME280;2038;51.728;6.674;2023-07-31T11:29:19;100030.91;;;19.57;100.00
47753;BME280;2038;51.728;6.674;2023-07-31T11:31:47;100020.19;;;19.39;100.00
47753;BME280;2038;51.728;6.674;2023-07-31T11:34:15;100024.84;;;19.57;100.00
47753;BME280;2038;51.728;6.674;2023-07-31T11:36:41;100027.41;;;19.55;100.00
47753;BME280;2038;51.728;6.674;2023-07-31T11:39:18;100027.66;;;19.71;100.00
47753;BME280;2038;51.728;6.674;2023-07-31T11:41:45;100024.47;;;19.87;100.00
47753;BME280;2038;51.728;6.674;2023-07-31T11:44:11;100016.59;;;19.78;100.00
47753;BME280;2038;51.728;6.674;2023-07-31T11:46:38;100012.84;;;19.60;100.00
47753;BME280;2038;51.728;6.674;2023-07-31T11:49:04;100009.25;;;19.54;100.00
47753;BME280;2038;51.728;6.674;2023-07-31T11:51:31;100031.13;;;19.70;100.00
47753;BME280;2038;51.728;6.674;2023-07-31T11:53:59;100025.66;;;19.54;100.00
47753;BME280;2038;51.728;6.674;2023-07-31T11:56:27;100035.31;;;19.65;100.00
47753;BME280;2038;51.728;6.674;2023-07-31T11:58:58;100016.94;;;19.48;100.00
47753;BME280;2038;51.728;6.674;2023-07-31T12:01:28;100019.56;;;19.49;100.00
47753;BME280;2038;51.728;6.674;2023-07-31T12:03:56;100022.75;;;19.38;100.00
47753;BME280;2038;51.728;6.674;2023-07-31T12:06:33;100020.47;;;19.53;100.00
47753;BME280;2038;51.728;6.674;2023-07-31T12:09:06;100015.44;;;19.62;100.00
47753;BME280;2038;51.728;6.674;2023-07-31T12:11:44;100016.19;;;19.53;100.00
47753;BME280;2038;51.728;6.674;2023-07-31T12:14:24;100013.47;;;19.47;100.00
47753;BME280;2038;51.728;6.674;2023-07-31T12:17:01;100014.34;;;19.48;100.00
47753;BME280;2038;51.728;6.674;2023-07-31T12:19:30;100010.38;;;19.68;100.00
47753;BME280;2038;51.728;6.674;2023-07-31T12:21:58;100008.88;;;19.82;100.00
47753;BME280;2038;51.728;6.674;2023-07-31T12:24:36;100011.59;;;19.88;100.00
47753;BME280;2038;51.728;6.674;2023-07-31T12:27:12;100016.88;;;19.96;100.00
47753;BME280;2038;51.728;6.674;2023-07-31T12:29:41;100014.28;;;19.96;100.00
47753;BME280;2038;51.728;6.674;2023-07-31T12:32:24;100013.41;;;19.95;100.00
47753;BME280;2038;51.728;6.674;2023-07-31T12:34:59;100015.59;;;20.24;100.00
47753;BME280;2038;51.728;6.674;2023-07-31T12:37:25;100009.41;;;20.16;100.00
47753;BME280;2038;51.728;6.674;2023-07-31T12:39:52;100015.53;;;20.22;100.00
47753;BME280;2038;51.728;6.674;2023-07-31T12:42:18;100019.16;;;20.29;100.00
47753;BME280;2038;51.728;6.674;2023-07-31T12:44:44;100014.75;;;20.25;100.00
47753;BME280;2038;51.728;6.674;2023-07-31T12:47:10;100018.75;;;20.06;100.00
47753;BME280;2038;51.728;6.674;2023-07-31T12:49:37;100010.03;;;19.98;100.00
47753;BME280;2038;51.728;6.674;2023-07-31T12:52:03;100001.47;;;20.02;100.00
47753;BME280;2038;51.728;6.674;2023-07-31T12:54:29;100004.91;;;20.01;100.00
47753;BME280;2038;51.728;6.674;2023-07-31T12:56:56;99989.59;;;20.16;100.00
47753;BME280;2038;51.728;6.674;2023-07-31T12:59:22;99983.69;;;20.25;100.00